sensor_id;sensor_type;location;lat;lon;timestamp;temperature;humidity
40516;DHT22;26216;53.724;9.898;2023-07-16T00:00:33;21.90;90.30
40516;DHT22;26216;53.724;9.898;2023-07-16T00:02:59;21.90;90.50
40516;DHT22;26216;53.724;9.898;2023-07-16T00:05:25;21.90;90.50
40516;DHT22;26216;53.724;9.898;2023-07-16T00:07:51;21.90;90.60
40516;DHT22;26216;53.724;9.898;2023-07-16T00:10:17;21.90;90.80
40516;DHT22;26216;53.724;9.898;2023-07-16T00:12:43;21.90;90.90
40516;DHT22;26216;53.724;9.898;2023-07-16T00:15:09;21.90;91.00
40516;DHT22;26216;53.724;9.898;2023-07-16T00:17:35;21.90;91.20
40516;DHT22;26216;53.724;9.898;2023-07-16T00:20:02;21.90;91.00
40516;DHT22;26216;53.724;9.898;2023-07-16T00:22:28;21.90;91.00
40516;DHT22;26216;53.724;9.898;2023-07-16T00:24:54;21.90;91.00
40516;DHT22;26216;53.724;9.898;2023-07-16T00:27:20;21.90;91.00
40516;DHT22;26216;53.724;9.898;2023-07-16T00:29:46;21.90;91.10
40516;DHT22;26216;53.724;9.898;2023-07-16T00:32:12;21.90;91.20
40516;DHT22;26216;53.724;9.898;2023-07-16T00:34:38;21.90;91.30
40516;DHT22;26216;53.724;9.898;2023-07-16T00:37:04;21.90;91.40
40516;DHT22;26216;53.724;9.898;2023-07-16T00:39:30;21.90;91.40
40516;DHT22;26216;53.724;9.898;2023-07-16T00:41:59;21.80;91.50
40516;DHT22;26216;53.724;9.898;2023-07-16T00:44:25;21.80;91.70
40516;DHT22;26216;53.724;9.898;2023-07-16T00:46:51;21.90;91.70
40516;DHT22;26216;53.724;9.898;2023-07-16T00:49:18;21.80;91.70
40516;DHT22;26216;53.724;9.898;2023-07-16T00:52:05;21.80;91.70
40516;DHT22;26216;53.724;9.898;2023-07-16T00:54:31;21.80;91.80
40516;DHT22;26216;53.724;9.898;2023-07-16T00:56:57;21.80;92.00
40516;DHT22;26216;53.724;9.898;2023-07-16T00:59:23;21.80;92.00
40516;DHT22;26216;53.724;9.898;2023-07-16T01:01:50;21.80;92.10
40516;DHT22;26216;53.724;9.898;2023-07-16T01:04:16;21.80;92.20
40516;DHT22;26216;53.724;9.898;2023-07-16T01:06:46;21.80;92.20
40516;DHT22;26216;53.724;9.898;2023-07-16T01:09:18;21.80;92.30
40516;DHT22;26216;53.724;9.898;2023-07-16T01:11:45;21.80;92.40
40516;DHT22;26216;53.724;9.898;2023-07-16T01:14:13;21.80;92.30
40516;DHT22;26216;53.724;9.898;2023-07-16T01:16:40;21.80;92.40
40516;DHT22;26216;53.724;9.898;2023-07-16T01:19:06;21.80;92.50
40516;DHT22;26216;53.724;9.898;2023-07-16T01:22:02;21.80;92.60
40516;DHT22;26216;53.724;9.898;2023-07-16T01:24:59;21.80;93.10
40516;DHT22;26216;53.724;9.898;2023-07-16T01:30:27;21.80;93.20
40516;DHT22;26216;53.724;9.898;2023-07-16T01:32:55;21.70;92.80
40516;DHT22;26216;53.724;9.898;2023-07-16T01:35:23;21.70;92.80
40516;DHT22;26216;53.724;9.898;2023-07-16T01:37:49;21.70;92.90
40516;DHT22;26216;53.724;9.898;2023-07-16T01:40:15;21.70;92.90
40516;DHT22;26216;53.724;9.898;2023-07-16T01:42:41;21.70;93.00
40516;DHT22;26216;53.724;9.898;2023-07-16T01:45:07;21.70;93.00
40516;DHT22;26216;53.724;9.898;2023-07-16T01:50:19;21.70;93.50
40516;DHT22;26216;53.724;9.898;2023-07-16T01:52:46;21.60;93.30
40516;DHT22;26216;53.724;9.898;2023-07-16T01:55:12;21.60;93.20
40516;DHT22;26216;53.724;9.898;2023-07-16T01:57:37;21.70;93.20
40516;DHT22;26216;53.724;9.898;2023-07-16T02:00:04;21.60;93.30
40516;DHT22;26216;53.724;9.898;2023-07-16T02:02:30;21.60;93.30
40516;DHT22;26216;53.724;9.898;2023-07-16T02:04:56;21.60;93.40
40516;DHT22;26216;53.724;9.898;2023-07-16T02:07:25;21.60;93.70
40516;DHT22;26216;53.724;9.898;2023-07-16T02:09:51;21.60;93.50
40516;DHT22;26216;53.724;9.898;2023-07-16T02:12:17;21.60;93.40
40516;DHT22;26216;53.724;9.898;2023-07-16T02:14:44;21.60;93.40
40516;DHT22;26216;53.724;9.898;2023-07-16T02:17:17;21.60;93.50
40516;DHT22;26216;53.724;9.898;2023-07-16T02:19:51;21.60;93.60
40516;DHT22;26216;53.724;9.898;2023-07-16T02:22:21;21.50;93.50
40516;DHT22;26216;53.724;9.898;2023-07-16T02:24:52;21.50;93.50
40516;DHT22;26216;53.724;9.898;2023-07-16T02:27:20;21.50;93.60
40516;DHT22;26216;53.724;9.898;2023-07-16T02:29:47;21.50;93.50
40516;DHT22;26216;53.724;9.898;2023-07-16T02:32:13;21.50;93.60
40516;DHT22;26216;53.724;9.898;2023-07-16T02:34:39;21.40;93.60
40516;DHT22;26216;53.724;9.898;2023-07-16T02:37:07;21.40;93.60
40516;DHT22;26216;53.724;9.898;2023-07-16T02:39:42;21.40;93.80
40516;DHT22;26216;53.724;9.898;2023-07-16T02:42:08;21.40;93.70
40516;DHT22;26216;53.724;9.898;2023-07-16T02:44:36;21.40;93.70
40516;DHT22;26216;53.724;9.898;2023-07-16T02:47:12;21.40;93.80
40516;DHT22;26216;53.724;9.898;2023-07-16T02:49:45;21.30;93.90
40516;DHT22;26216;53.724;9.898;2023-07-16T02:52:15;21.30;93.90
40516;DHT22;26216;53.724;9.898;2023-07-16T02:54:42;21.30;93.90
40516;DHT22;26216;53.724;9.898;2023-07-16T02:57:10;21.20;94.00
40516;DHT22;26216;53.724;9.898;2023-07-16T02:59:35;21.20;93.90
40516;DHT22;26216;53.724;9.898;2023-07-16T03:02:01;21.20;94.10
40516;DHT22;26216;53.724;9.898;2023-07-16T03:04:27;21.10;94.10
40516;DHT22;26216;53.724;9.898;2023-07-16T03:06:53;21.20;94.10
40516;DHT22;26216;53.724;9.898;2023-07-16T03:09:19;21.10;94.20
40516;DHT22;26216;53.724;9.898;2023-07-16T03:11:45;21.10;94.30
40516;DHT22;26216;53.724;9.898;2023-07-16T03:14:10;21.10;94.30
40516;DHT22;26216;53.724;9.898;2023-07-16T03:16:36;21.10;94.40
40516;DHT22;26216;53.724;9.898;2023-07-16T03:19:02;21.10;94.40
40516;DHT22;26216;53.724;9.898;2023-07-16T03:21:28;21.10;94.40
40516;DHT22;26216;53.724;9.898;2023-07-16T03:23:54;21.10;94.40
40516;DHT22;26216;53.724;9.898;2023-07-16T03:26:20;21.10;94.40
40516;DHT22;26216;53.724;9.898;2023-07-16T03:28:45;21.00;94.40
40516;DHT22;26216;53.724;9.898;2023-07-16T03:31:11;21.00;94.50
40516;DHT22;26216;53.724;9.898;2023-07-16T03:33:37;21.00;94.50
40516;DHT22;26216;53.724;9.898;2023-07-16T03:36:03;21.00;94.50
40516;DHT22;26216;53.724;9.898;2023-07-16T03:38:29;21.00;94.50
40516;DHT22;26216;53.724;9.898;2023-07-16T03:40:55;21.00;94.50
40516;DHT22;26216;53.724;9.898;2023-07-16T03:43:20;21.00;94.50
40516;DHT22;26216;53.724;9.898;2023-07-16T03:45:46;21.00;94.50
40516;DHT22;26216;53.724;9.898;2023-07-16T03:48:12;21.00;94.80
40516;DHT22;26216;53.724;9.898;2023-07-16T03:50:38;20.90;94.40
40516;DHT22;26216;53.724;9.898;2023-07-16T03:53:03;20.90;94.40
40516;DHT22;26216;53.724;9.898;2023-07-16T03:55:30;20.90;94.40
40516;DHT22;26216;53.724;9.898;2023-07-16T03:57:55;20.90;94.50
40516;DHT22;26216;53.724;9.898;2023-07-16T04:00:21;20.80;94.40
40516;DHT22;26216;53.724;9.898;2023-07-16T04:02:47;20.80;94.50
40516;DHT22;26216;53.724;9.898;2023-07-16T04:05:13;20.80;94.50
40516;DHT22;26216;53.724;9.898;2023-07-16T04:07:38;20.80;94.60
40516;DHT22;26216;53.724;9.898;2023-07-16T04:10:05;20.70;94.70
40516;DHT22;26216;53.724;9.898;2023-07-16T04:12:31;20.80;94.90
40516;DHT22;26216;53.724;9.898;2023-07-16T04:14:59;20.80;94.90
40516;DHT22;26216;53.724;9.898;2023-07-16T04:17:26;20.80;95.10
40516;DHT22;26216;53.724;9.898;2023-07-16T04:19:52;20.70;95.20
40516;DHT22;26216;53.724;9.898;2023-07-16T04:22:17;20.80;95.30
40516;DHT22;26216;53.724;9.898;2023-07-16T04:24:43;20.80;95.50
40516;DHT22;26216;53.724;9.898;2023-07-16T04:27:09;20.80;95.50
40516;DHT22;26216;53.724;9.898;2023-07-16T04:29:35;20.90;95.80
40516;DHT22;26216;53.724;9.898;2023-07-16T04:32:01;20.90;96.10
40516;DHT22;26216;53.724;9.898;2023-07-16T04:34:27;21.00;96.30
40516;DHT22;26216;53.724;9.898;2023-07-16T04:36:53;21.10;96.50
40516;DHT22;26216;53.724;9.898;2023-07-16T04:39:19;21.20;96.50
40516;DHT22;26216;53.724;9.898;2023-07-16T04:41:45;21.30;96.70
40516;DHT22;26216;53.724;9.898;2023-07-16T04:44:10;21.40;96.70
40516;DHT22;26216;53.724;9.898;2023-07-16T04:46:36;21.50;96.80
40516;DHT22;26216;53.724;9.898;2023-07-16T04:49:02;21.50;96.70
40516;DHT22;26216;53.724;9.898;2023-07-16T04:51:28;21.60;96.70
40516;DHT22;26216;53.724;9.898;2023-07-16T04:53:54;21.70;96.60
40516;DHT22;26216;53.724;9.898;2023-07-16T04:56:20;21.80;96.40
40516;DHT22;26216;53.724;9.898;2023-07-16T04:58:46;21.80;96.40
40516;DHT22;26216;53.724;9.898;2023-07-16T05:01:11;21.80;96.20
40516;DHT22;26216;53.724;9.898;2023-07-16T05:03:37;21.90;96.10
40516;DHT22;26216;53.724;9.898;2023-07-16T05:06:03;21.90;95.90
40516;DHT22;26216;53.724;9.898;2023-07-16T05:08:29;21.90;95.80
40516;DHT22;26216;53.724;9.898;2023-07-16T05:10:55;21.90;95.80
40516;DHT22;26216;53.724;9.898;2023-07-16T05:13:21;22.00;95.80
40516;DHT22;26216;53.724;9.898;2023-07-16T05:15:47;22.00;95.90
40516;DHT22;26216;53.724;9.898;2023-07-16T05:18:13;22.00;95.90
40516;DHT22;26216;53.724;9.898;2023-07-16T05:20:39;22.10;96.00
40516;DHT22;26216;53.724;9.898;2023-07-16T05:23:04;22.10;96.10
40516;DHT22;26216;53.724;9.898;2023-07-16T05:25:30;22.20;96.10
40516;DHT22;26216;53.724;9.898;2023-07-16T05:27:56;22.20;96.00
40516;DHT22;26216;53.724;9.898;2023-07-16T05:30:22;22.30;96.00
40516;DHT22;26216;53.724;9.898;2023-07-16T05:32:48;22.40;95.90
40516;DHT22;26216;53.724;9.898;2023-07-16T05:35:14;22.40;95.70
40516;DHT22;26216;53.724;9.898;2023-07-16T05:37:40;22.50;95.40
40516;DHT22;26216;53.724;9.898;2023-07-16T05:40:06;22.50;95.30
40516;DHT22;26216;53.724;9.898;2023-07-16T05:42:36;22.40;95.40
40516;DHT22;26216;53.724;9.898;2023-07-16T05:45:01;22.50;95.70
40516;DHT22;26216;53.724;9.898;2023-07-16T05:47:28;22.50;95.80
40516;DHT22;26216;53.724;9.898;2023-07-16T05:49:53;22.60;95.80
40516;DHT22;26216;53.724;9.898;2023-07-16T05:52:19;22.60;95.80
40516;DHT22;26216;53.724;9.898;2023-07-16T05:54:45;22.70;96.00
40516;DHT22;26216;53.724;9.898;2023-07-16T05:57:11;22.70;96.10
40516;DHT22;26216;53.724;9.898;2023-07-16T05:59:37;22.90;96.10
40516;DHT22;26216;53.724;9.898;2023-07-16T06:02:06;22.90;95.90
40516;DHT22;26216;53.724;9.898;2023-07-16T06:04:31;23.00;95.80
40516;DHT22;26216;53.724;9.898;2023-07-16T06:06:57;23.10;95.60
40516;DHT22;26216;53.724;9.898;2023-07-16T06:09:24;23.20;94.90
40516;DHT22;26216;53.724;9.898;2023-07-16T06:11:50;23.30;95.20
40516;DHT22;26216;53.724;9.898;2023-07-16T06:14:16;23.40;95.30
40516;DHT22;26216;53.724;9.898;2023-07-16T06:16:42;23.40;94.80
40516;DHT22;26216;53.724;9.898;2023-07-16T06:19:08;23.50;94.50
40516;DHT22;26216;53.724;9.898;2023-07-16T06:21:34;23.50;94.10
40516;DHT22;26216;53.724;9.898;2023-07-16T06:24:00;23.60;94.40
40516;DHT22;26216;53.724;9.898;2023-07-16T06:26:26;23.70;94.30
40516;DHT22;26216;53.724;9.898;2023-07-16T06:28:52;23.70;94.00
40516;DHT22;26216;53.724;9.898;2023-07-16T06:31:18;23.80;93.30
40516;DHT22;26216;53.724;9.898;2023-07-16T06:33:44;23.80;93.00
40516;DHT22;26216;53.724;9.898;2023-07-16T06:36:12;23.90;93.30
40516;DHT22;26216;53.724;9.898;2023-07-16T06:38:38;23.90;93.00
40516;DHT22;26216;53.724;9.898;2023-07-16T06:41:04;24.00;93.40
40516;DHT22;26216;53.724;9.898;2023-07-16T06:43:30;24.10;93.10
40516;DHT22;26216;53.724;9.898;2023-07-16T06:45:56;24.10;92.80
40516;DHT22;26216;53.724;9.898;2023-07-16T06:48:23;24.20;92.60
40516;DHT22;26216;53.724;9.898;2023-07-16T06:50:50;24.20;92.50
40516;DHT22;26216;53.724;9.898;2023-07-16T06:53:15;24.30;92.30
40516;DHT22;26216;53.724;9.898;2023-07-16T06:55:41;24.30;92.40
40516;DHT22;26216;53.724;9.898;2023-07-16T06:58:10;24.40;91.90
40516;DHT22;26216;53.724;9.898;2023-07-16T07:00:36;24.50;91.80
40516;DHT22;26216;53.724;9.898;2023-07-16T07:03:06;24.50;90.80
40516;DHT22;26216;53.724;9.898;2023-07-16T07:05:32;24.50;90.50
40516;DHT22;26216;53.724;9.898;2023-07-16T07:07:58;24.50;90.20
40516;DHT22;26216;53.724;9.898;2023-07-16T07:10:23;24.60;90.60
40516;DHT22;26216;53.724;9.898;2023-07-16T07:12:49;24.60;90.20
40516;DHT22;26216;53.724;9.898;2023-07-16T07:15:15;24.50;90.00
40516;DHT22;26216;53.724;9.898;2023-07-16T07:17:41;24.60;90.10
40516;DHT22;26216;53.724;9.898;2023-07-16T07:20:08;24.60;90.30
40516;DHT22;26216;53.724;9.898;2023-07-16T07:22:34;24.60;90.70
40516;DHT22;26216;53.724;9.898;2023-07-16T07:25:00;24.60;90.90
40516;DHT22;26216;53.724;9.898;2023-07-16T07:27:26;24.70;91.10
40516;DHT22;26216;53.724;9.898;2023-07-16T07:29:52;24.80;90.60
40516;DHT22;26216;53.724;9.898;2023-07-16T07:32:21;24.80;90.60
40516;DHT22;26216;53.724;9.898;2023-07-16T07:34:47;24.90;90.20
40516;DHT22;26216;53.724;9.898;2023-07-16T07:37:13;24.90;90.00
40516;DHT22;26216;53.724;9.898;2023-07-16T07:39:39;25.00;90.20
40516;DHT22;26216;53.724;9.898;2023-07-16T07:42:05;25.00;89.30
40516;DHT22;26216;53.724;9.898;2023-07-16T07:44:32;25.00;88.20
40516;DHT22;26216;53.724;9.898;2023-07-16T07:46:58;25.00;86.10
40516;DHT22;26216;53.724;9.898;2023-07-16T07:49:24;25.00;86.40
40516;DHT22;26216;53.724;9.898;2023-07-16T07:51:49;25.10;86.60
40516;DHT22;26216;53.724;9.898;2023-07-16T07:54:15;25.00;84.30
40516;DHT22;26216;53.724;9.898;2023-07-16T07:56:42;25.00;86.00
40516;DHT22;26216;53.724;9.898;2023-07-16T07:59:08;25.00;87.10
40516;DHT22;26216;53.724;9.898;2023-07-16T08:01:34;25.00;87.20
40516;DHT22;26216;53.724;9.898;2023-07-16T08:03:59;25.00;85.20
40516;DHT22;26216;53.724;9.898;2023-07-16T08:06:26;25.00;86.90
40516;DHT22;26216;53.724;9.898;2023-07-16T08:08:51;25.00;86.20
40516;DHT22;26216;53.724;9.898;2023-07-16T08:11:17;25.10;86.90
40516;DHT22;26216;53.724;9.898;2023-07-16T08:13:43;25.10;82.40
40516;DHT22;26216;53.724;9.898;2023-07-16T08:16:09;25.10;85.40
40516;DHT22;26216;53.724;9.898;2023-07-16T08:18:35;25.10;84.40
40516;DHT22;26216;53.724;9.898;2023-07-16T08:21:01;25.10;84.80
40516;DHT22;26216;53.724;9.898;2023-07-16T08:23:27;25.10;83.90
40516;DHT22;26216;53.724;9.898;2023-07-16T08:25:53;25.20;85.30
40516;DHT22;26216;53.724;9.898;2023-07-16T08:28:19;25.20;83.20
40516;DHT22;26216;53.724;9.898;2023-07-16T08:30:48;25.20;84.50
40516;DHT22;26216;53.724;9.898;2023-07-16T08:33:14;25.20;83.60
40516;DHT22;26216;53.724;9.898;2023-07-16T08:35:41;25.30;84.40
40516;DHT22;26216;53.724;9.898;2023-07-16T08:38:07;25.30;84.70
40516;DHT22;26216;53.724;9.898;2023-07-16T08:40:38;25.30;83.80
40516;DHT22;26216;53.724;9.898;2023-07-16T08:43:05;25.40;83.60
40516;DHT22;26216;53.724;9.898;2023-07-16T08:45:43;25.40;84.20
40516;DHT22;26216;53.724;9.898;2023-07-16T08:48:13;25.40;82.40
40516;DHT22;26216;53.724;9.898;2023-07-16T08:50:42;25.50;81.40
40516;DHT22;26216;53.724;9.898;2023-07-16T08:53:08;25.50;82.90
40516;DHT22;26216;53.724;9.898;2023-07-16T08:55:34;25.50;83.20
40516;DHT22;26216;53.724;9.898;2023-07-16T08:58:03;25.50;83.10
40516;DHT22;26216;53.724;9.898;2023-07-16T09:00:30;25.50;82.30
40516;DHT22;26216;53.724;9.898;2023-07-16T09:02:56;25.40;82.60
40516;DHT22;26216;53.724;9.898;2023-07-16T09:05:23;25.40;82.60
40516;DHT22;26216;53.724;9.898;2023-07-16T09:07:49;25.40;82.10
40516;DHT22;26216;53.724;9.898;2023-07-16T09:10:15;25.30;83.30
40516;DHT22;26216;53.724;9.898;2023-07-16T09:12:42;25.30;82.90
40516;DHT22;26216;53.724;9.898;2023-07-16T09:15:09;25.40;83.40
40516;DHT22;26216;53.724;9.898;2023-07-16T09:17:35;25.40;84.40
40516;DHT22;26216;53.724;9.898;2023-07-16T09:20:04;25.50;83.30
40516;DHT22;26216;53.724;9.898;2023-07-16T09:22:34;25.60;83.00
40516;DHT22;26216;53.724;9.898;2023-07-16T09:25:03;25.60;82.70
40516;DHT22;26216;53.724;9.898;2023-07-16T09:27:30;25.70;83.00
40516;DHT22;26216;53.724;9.898;2023-07-16T09:29:56;25.70;80.70
40516;DHT22;26216;53.724;9.898;2023-07-16T09:32:22;25.80;79.90
40516;DHT22;26216;53.724;9.898;2023-07-16T09:34:51;25.80;80.40
40516;DHT22;26216;53.724;9.898;2023-07-16T09:37:18;25.90;81.40
40516;DHT22;26216;53.724;9.898;2023-07-16T09:39:46;25.90;82.10
40516;DHT22;26216;53.724;9.898;2023-07-16T09:42:12;25.90;80.80
40516;DHT22;26216;53.724;9.898;2023-07-16T09:44:40;26.00;78.60
40516;DHT22;26216;53.724;9.898;2023-07-16T09:47:07;26.00;79.00
40516;DHT22;26216;53.724;9.898;2023-07-16T09:49:33;26.00;78.60
40516;DHT22;26216;53.724;9.898;2023-07-16T09:52:01;26.00;75.20
40516;DHT22;26216;53.724;9.898;2023-07-16T09:54:31;26.00;76.80
40516;DHT22;26216;53.724;9.898;2023-07-16T09:57:00;26.00;76.00
40516;DHT22;26216;53.724;9.898;2023-07-16T09:59:28;26.00;74.60
40516;DHT22;26216;53.724;9.898;2023-07-16T10:01:55;26.10;75.60
40516;DHT22;26216;53.724;9.898;2023-07-16T10:04:22;26.00;76.60
40516;DHT22;26216;53.724;9.898;2023-07-16T10:06:53;26.00;76.00
40516;DHT22;26216;53.724;9.898;2023-07-16T10:09:41;26.00;76.40
40516;DHT22;26216;53.724;9.898;2023-07-16T10:12:17;26.00;76.90
40516;DHT22;26216;53.724;9.898;2023-07-16T10:14:49;26.00;76.10
40516;DHT22;26216;53.724;9.898;2023-07-16T10:17:20;26.10;76.70
40516;DHT22;26216;53.724;9.898;2023-07-16T10:22:18;26.10;76.20
40516;DHT22;26216;53.724;9.898;2023-07-16T10:24:51;26.20;75.60
40516;DHT22;26216;53.724;9.898;2023-07-16T10:27:30;26.20;73.50
40516;DHT22;26216;53.724;9.898;2023-07-16T10:29:56;26.20;73.20
40516;DHT22;26216;53.724;9.898;2023-07-16T10:32:27;26.20;72.90
40516;DHT22;26216;53.724;9.898;2023-07-16T10:34:54;26.20;72.50
40516;DHT22;26216;53.724;9.898;2023-07-16T10:37:20;26.20;74.10
40516;DHT22;26216;53.724;9.898;2023-07-16T10:39:53;26.20;72.70
40516;DHT22;26216;53.724;9.898;2023-07-16T10:42:21;26.20;72.80
40516;DHT22;26216;53.724;9.898;2023-07-16T10:45:14;26.30;73.30
40516;DHT22;26216;53.724;9.898;2023-07-16T10:47:53;26.30;71.50
40516;DHT22;26216;53.724;9.898;2023-07-16T10:50:19;26.30;71.70
40516;DHT22;26216;53.724;9.898;2023-07-16T10:52:53;26.30;73.20
40516;DHT22;26216;53.724;9.898;2023-07-16T10:55:20;26.40;74.00
40516;DHT22;26216;53.724;9.898;2023-07-16T10:57:50;26.40;73.10
40516;DHT22;26216;53.724;9.898;2023-07-16T11:00:17;26.50;71.80
40516;DHT22;26216;53.724;9.898;2023-07-16T11:02:44;26.50;72.40
40516;DHT22;26216;53.724;9.898;2023-07-16T11:05:13;26.60;72.10
40516;DHT22;26216;53.724;9.898;2023-07-16T11:07:47;26.70;71.20
40516;DHT22;26216;53.724;9.898;2023-07-16T11:10:15;26.70;72.20
40516;DHT22;26216;53.724;9.898;2023-07-16T11:12:42;26.80;72.90
40516;DHT22;26216;53.724;9.898;2023-07-16T11:15:09;26.80;69.20
40516;DHT22;26216;53.724;9.898;2023-07-16T11:17:38;26.80;70.00
40516;DHT22;26216;53.724;9.898;2023-07-16T11:20:07;26.80;70.80
40516;DHT22;26216;53.724;9.898;2023-07-16T11:22:38;26.80;70.30
40516;DHT22;26216;53.724;9.898;2023-07-16T11:25:11;26.80;70.20
40516;DHT22;26216;53.724;9.898;2023-07-16T11:27:40;26.80;70.80
40516;DHT22;26216;53.724;9.898;2023-07-16T11:30:07;26.90;70.50
40516;DHT22;26216;53.724;9.898;2023-07-16T11:32:38;27.00;70.90
40516;DHT22;26216;53.724;9.898;2023-07-16T11:35:05;27.00;70.60
40516;DHT22;26216;53.724;9.898;2023-07-16T11:37:33;27.10;69.80
40516;DHT22;26216;53.724;9.898;2023-07-16T11:40:05;27.10;70.40
40516;DHT22;26216;53.724;9.898;2023-07-16T11:42:33;27.20;70.70
40516;DHT22;26216;53.724;9.898;2023-07-16T11:44:59;27.30;70.30
40516;DHT22;26216;53.724;9.898;2023-07-16T11:47:26;27.40;69.70
40516;DHT22;26216;53.724;9.898;2023-07-16T11:49:53;27.50;70.60
40516;DHT22;26216;53.724;9.898;2023-07-16T11:52:23;27.50;70.20
40516;DHT22;26216;53.724;9.898;2023-07-16T11:54:51;27.60;67.50
40516;DHT22;26216;53.724;9.898;2023-07-16T11:57:17;27.70;68.40
40516;DHT22;26216;53.724;9.898;2023-07-16T11:59:43;27.70;67.80
40516;DHT22;26216;53.724;9.898;2023-07-16T12:02:09;27.80;68.20
40516;DHT22;26216;53.724;9.898;2023-07-16T12:04:35;27.80;68.20
40516;DHT22;26216;53.724;9.898;2023-07-16T12:07:01;27.80;66.60
40516;DHT22;26216;53.724;9.898;2023-07-16T12:09:27;27.80;66.30
40516;DHT22;26216;53.724;9.898;2023-07-16T12:11:53;27.80;67.00
40516;DHT22;26216;53.724;9.898;2023-07-16T12:14:18;27.80;66.90
40516;DHT22;26216;53.724;9.898;2023-07-16T12:16:44;27.70;67.20
40516;DHT22;26216;53.724;9.898;2023-07-16T12:19:10;27.80;67.30
40516;DHT22;26216;53.724;9.898;2023-07-16T12:21:36;27.80;67.80
40516;DHT22;26216;53.724;9.898;2023-07-16T12:24:03;27.90;66.70
40516;DHT22;26216;53.724;9.898;2023-07-16T12:26:28;27.90;67.40
40516;DHT22;26216;53.724;9.898;2023-07-16T12:28:54;27.90;67.30
40516;DHT22;26216;53.724;9.898;2023-07-16T12:31:21;28.00;66.60
40516;DHT22;26216;53.724;9.898;2023-07-16T12:33:48;28.00;65.90
40516;DHT22;26216;53.724;9.898;2023-07-16T12:36:15;28.00;66.30
40516;DHT22;26216;53.724;9.898;2023-07-16T12:38:41;28.00;66.00
40516;DHT22;26216;53.724;9.898;2023-07-16T12:41:07;28.00;66.10
40516;DHT22;26216;53.724;9.898;2023-07-16T12:43:33;28.00;65.90
40516;DHT22;26216;53.724;9.898;2023-07-16T12:46:01;27.90;65.10
40516;DHT22;26216;53.724;9.898;2023-07-16T12:48:29;27.90;65.50
40516;DHT22;26216;53.724;9.898;2023-07-16T12:50:55;27.80;66.30
40516;DHT22;26216;53.724;9.898;2023-07-16T12:53:21;27.70;65.60
40516;DHT22;26216;53.724;9.898;2023-07-16T12:55:49;27.70;66.30
40516;DHT22;26216;53.724;9.898;2023-07-16T12:58:15;27.60;65.00
40516;DHT22;26216;53.724;9.898;2023-07-16T13:00:41;27.60;65.60
40516;DHT22;26216;53.724;9.898;2023-07-16T13:03:07;27.60;64.90
40516;DHT22;26216;53.724;9.898;2023-07-16T13:05:40;27.60;65.00
40516;DHT22;26216;53.724;9.898;2023-07-16T13:08:06;27.60;67.00
40516;DHT22;26216;53.724;9.898;2023-07-16T13:10:32;27.60;65.60
40516;DHT22;26216;53.724;9.898;2023-07-16T13:12:58;27.60;66.00
40516;DHT22;26216;53.724;9.898;2023-07-16T13:15:25;27.70;66.80
40516;DHT22;26216;53.724;9.898;2023-07-16T13:17:51;27.80;67.30
40516;DHT22;26216;53.724;9.898;2023-07-16T13:20:18;27.80;65.70
40516;DHT22;26216;53.724;9.898;2023-07-16T13:22:44;27.80;65.80
40516;DHT22;26216;53.724;9.898;2023-07-16T13:25:10;27.80;65.80
40516;DHT22;26216;53.724;9.898;2023-07-16T13:27:36;27.80;65.30
40516;DHT22;26216;53.724;9.898;2023-07-16T13:30:02;27.80;65.90
40516;DHT22;26216;53.724;9.898;2023-07-16T13:32:29;27.80;64.70
40516;DHT22;26216;53.724;9.898;2023-07-16T13:34:54;27.80;64.60
40516;DHT22;26216;53.724;9.898;2023-07-16T13:37:20;27.80;63.90
40516;DHT22;26216;53.724;9.898;2023-07-16T13:39:47;27.70;65.10
40516;DHT22;26216;53.724;9.898;2023-07-16T13:42:12;27.70;65.20
40516;DHT22;26216;53.724;9.898;2023-07-16T13:44:39;27.70;65.50
40516;DHT22;26216;53.724;9.898;2023-07-16T13:47:05;27.70;65.70
40516;DHT22;26216;53.724;9.898;2023-07-16T13:49:31;27.70;66.00
40516;DHT22;26216;53.724;9.898;2023-07-16T13:51:57;27.70;66.30
40516;DHT22;26216;53.724;9.898;2023-07-16T13:54:23;27.70;65.80
40516;DHT22;26216;53.724;9.898;2023-07-16T13:56:49;27.70;65.50
40516;DHT22;26216;53.724;9.898;2023-07-16T13:59:15;27.60;65.40
40516;DHT22;26216;53.724;9.898;2023-07-16T14:01:42;27.60;65.20
40516;DHT22;26216;53.724;9.898;2023-07-16T14:04:08;27.60;66.00
40516;DHT22;26216;53.724;9.898;2023-07-16T14:06:34;27.50;65.50
40516;DHT22;26216;53.724;9.898;2023-07-16T14:09:00;27.50;66.50
40516;DHT22;26216;53.724;9.898;2023-07-16T14:11:26;27.50;66.80
40516;DHT22;26216;53.724;9.898;2023-07-16T14:13:52;27.50;67.10
40516;DHT22;26216;53.724;9.898;2023-07-16T14:16:21;27.60;65.90
40516;DHT22;26216;53.724;9.898;2023-07-16T14:18:51;27.50;66.00
40516;DHT22;26216;53.724;9.898;2023-07-16T14:21:18;27.60;66.70
40516;DHT22;26216;53.724;9.898;2023-07-16T14:23:44;27.50;66.50
40516;DHT22;26216;53.724;9.898;2023-07-16T14:26:10;27.50;67.00
40516;DHT22;26216;53.724;9.898;2023-07-16T14:28:36;27.50;66.30
40516;DHT22;26216;53.724;9.898;2023-07-16T14:31:01;27.50;66.20
40516;DHT22;26216;53.724;9.898;2023-07-16T14:33:28;27.40;65.90
40516;DHT22;26216;53.724;9.898;2023-07-16T14:35:53;27.40;66.00
40516;DHT22;26216;53.724;9.898;2023-07-16T14:38:19;27.40;65.10
40516;DHT22;26216;53.724;9.898;2023-07-16T14:40:45;27.30;65.50
40516;DHT22;26216;53.724;9.898;2023-07-16T14:43:13;27.30;65.70
40516;DHT22;26216;53.724;9.898;2023-07-16T14:45:40;27.30;65.90
40516;DHT22;26216;53.724;9.898;2023-07-16T14:48:07;27.40;65.80
40516;DHT22;26216;53.724;9.898;2023-07-16T14:50:35;27.40;65.90
40516;DHT22;26216;53.724;9.898;2023-07-16T14:53:01;27.50;65.50
40516;DHT22;26216;53.724;9.898;2023-07-16T14:55:27;27.50;64.00
40516;DHT22;26216;53.724;9.898;2023-07-16T14:57:53;27.50;65.30
40516;DHT22;26216;53.724;9.898;2023-07-16T15:00:20;27.60;65.00
40516;DHT22;26216;53.724;9.898;2023-07-16T15:02:46;27.60;65.30
40516;DHT22;26216;53.724;9.898;2023-07-16T15:05:12;27.60;65.60
40516;DHT22;26216;53.724;9.898;2023-07-16T15:07:38;27.70;65.30
40516;DHT22;26216;53.724;9.898;2023-07-16T15:10:05;27.80;65.80
40516;DHT22;26216;53.724;9.898;2023-07-16T15:12:32;27.90;64.60
40516;DHT22;26216;53.724;9.898;2023-07-16T15:14:59;28.00;63.80
40516;DHT22;26216;53.724;9.898;2023-07-16T15:17:25;28.00;63.50
40516;DHT22;26216;53.724;9.898;2023-07-16T15:19:54;28.00;64.50
40516;DHT22;26216;53.724;9.898;2023-07-16T15:22:20;28.00;65.60
40516;DHT22;26216;53.724;9.898;2023-07-16T15:24:47;28.10;65.20
40516;DHT22;26216;53.724;9.898;2023-07-16T15:27:13;28.30;64.30
40516;DHT22;26216;53.724;9.898;2023-07-16T15:29:39;28.50;65.50
40516;DHT22;26216;53.724;9.898;2023-07-16T15:32:06;28.70;64.70
40516;DHT22;26216;53.724;9.898;2023-07-16T15:34:32;28.80;64.30
40516;DHT22;26216;53.724;9.898;2023-07-16T15:36:58;28.90;63.80